Time;durP1;ratioP1;P1;durP2;ratioP2;P2;SDS_P1;SDS_P2;PMS_P1;PMS_P2;Temp;Humidity;BMP_temperature;BMP_pressure;BME280_temperature;BME280_humidity;BME280_pressure;Samples;Min_cycle;Max_cycle;Signal;HPM_P1;HPM_P2
2020/12/11 00:04:18;;;;;;;10.05;8.05;;;14.80;62.30;;;;;;10457469;28;20477;-62
2020/12/11 00:09:18;;;;;;;10.20;8.27;;;14.80;62.30;;;;;;10440846;28;20056;-62
2020/12/11 00:14:19;;;;;;;11.38;8.30;;;14.70;62.30;;;;;;10459811;28;20035;-62
2020/12/11 00:19:20;;;;;;;12.68;8.40;;;14.70;62.30;;;;;;10464687;28;20039;-63
2020/12/11 00:24:20;;;;;;;13.55;9.02;;;14.70;62.30;;;;;;10462895;28;20409;-62
2020/12/11 00:29:21;;;;;;;11.07;7.45;;;14.70;62.30;;;;;;10469988;28;20082;-63
2020/12/11 00:34:22;;;;;;;11.55;8.30;;;14.70;62.40;;;;;;10456764;28;20108;-62
2020/12/11 00:39:23;;;;;;;10.13;8.00;;;14.60;62.30;;;;;;10459211;28;20119;-62
2020/12/11 00:44:23;;;;;;;10.70;7.80;;;14.60;62.30;;;;;;10462827;28;20477;-62
2020/12/11 00:49:24;;;;;;;12.68;8.20;;;14.60;62.30;;;;;;10455809;28;20413;-63
2020/12/11 00:54:25;;;;;;;12.13;8.23;;;14.60;62.20;;;;;;10455721;28;20119;-62
2020/12/11 00:59:26;;;;;;;9.77;6.90;;;14.60;62.20;;;;;;10455128;28;20116;-62
2020/12/11 01:04:26;;;;;;;10.82;7.90;;;14.50;62.20;;;;;;10452634;28;20017;-62
2020/12/11 01:09:27;;;;;;;9.52;7.28;;;14.50;62.20;;;;;;10456201;28;20033;-62
2020/12/11 01:14:28;;;;;;;10.30;7.32;;;14.50;62.10;;;;;;10452917;28;20120;-62
2020/12/11 01:19:28;;;;;;;9.25;6.65;;;14.50;62.10;;;;;;10455978;28;20483;-62
2020/12/11 01:24:29;;;;;;;9.80;6.93;;;14.50;62.20;;;;;;10455771;28;20124;-62
2020/12/11 01:29:30;;;;;;;8.02;6.07;;;14.40;62.10;;;;;;10455316;28;20526;-62
2020/12/11 01:34:31;;;;;;;7.25;5.82;;;14.40;62.20;;;;;;10454300;28;20056;-62
2020/12/11 01:39:32;;;;;;;9.35;7.07;;;14.40;62.20;;;;;;10458093;28;20108;-62
2020/12/11 01:44:32;;;;;;;8.45;6.35;;;14.40;62.20;;;;;;10454104;28;20108;-62
2020/12/11 01:49:33;;;;;;;9.95;6.80;;;14.40;62.20;;;;;;10461069;28;20120;-62
2020/12/11 01:54:34;;;;;;;8.88;6.30;;;14.40;62.20;;;;;;10453519;28;20025;-62
2020/12/11 01:59:42;;;;;;;9.15;6.70;;;14.40;62.20;;;;;;10453570;28;20041;-62
2020/12/11 02:04:43;;;;;;;9.80;6.10;;;14.30;62.20;;;;;;10453391;28;20036;-63
2020/12/11 02:09:44;;;;;;;9.63;6.03;;;14.40;62.30;;;;;;10450889;28;20108;-63
2020/12/11 02:14:48;;;;;;;8.88;6.22;;;14.30;62.20;;;;;;10457838;28;20029;-62
2020/12/11 02:19:48;;;;;;;11.00;6.53;;;14.30;62.10;;;;;;10452882;28;20033;-62
2020/12/11 02:24:52;;;;;;;8.45;6.45;;;14.30;62.20;;;;;;10446460;28;20055;-62
2020/12/11 02:29:54;;;;;;;9.05;6.43;;;14.30;62.30;;;;;;10454585;28;20024;-62
2020/12/11 02:34:54;;;;;;;9.60;6.30;;;14.20;62.10;;;;;;10452459;28;20040;-62
2020/12/11 02:39:55;;;;;;;6.97;5.35;;;14.20;62.20;;;;;;10447609;28;20462;-62
2020/12/11 02:44:56;;;;;;;8.52;5.20;;;14.20;62.10;;;;;;10454776;28;20527;-62
2020/12/11 02:49:57;;;;;;;10.00;6.03;;;14.20;62.20;;;;;;10455838;28;20059;-62
2020/12/11 02:54:58;;;;;;;8.15;5.72;;;14.20;62.20;;;;;;10462055;28;20107;-62
2020/12/11 02:59:58;;;;;;;7.88;6.13;;;14.20;62.20;;;;;;10457069;28;20492;-62
2020/12/11 03:04:59;;;;;;;6.78;5.35;;;14.10;62.10;;;;;;10443226;28;20166;-62
2020/12/11 03:09:59;;;;;;;8.90;6.00;;;14.20;62.30;;;;;;10459770;28;20111;-62
2020/12/11 03:15:00;;;;;;;6.78;5.07;;;14.10;62.10;;;;;;10460062;28;20071;-62
2020/12/11 03:20:01;;;;;;;9.13;5.97;;;14.10;62.20;;;;;;10466609;28;20052;-62
2020/12/11 03:25:03;;;;;;;7.55;5.68;;;14.10;62.10;;;;;;10458779;28;20112;-62
2020/12/11 03:30:04;;;;;;;6.72;5.10;;;14.10;62.10;;;;;;10458398;28;20627;-62
2020/12/11 03:35:06;;;;;;;7.25;5.35;;;14.10;62.10;;;;;;10459067;28;20108;-62
2020/12/11 03:40:06;;;;;;;7.18;4.80;;;14.00;62.10;;;;;;10452661;28;20107;-62
2020/12/11 03:45:07;;;;;;;7.88;5.15;;;14.10;62.10;;;;;;10453640;28;20083;-62
2020/12/11 03:50:08;;;;;;;6.63;4.80;;;14.00;62.10;;;;;;10457603;28;20025;-62
2020/12/11 03:55:08;;;;;;;7.15;4.65;;;14.00;62.10;;;;;;10458209;28;20104;-62
2020/12/11 04:00:09;;;;;;;6.45;5.00;;;14.00;62.10;;;;;;10457680;28;20381;-63
2020/12/11 04:05:10;;;;;;;6.88;5.43;;;14.00;62.10;;;;;;10457695;28;20091;-62
2020/12/11 04:10:10;;;;;;;5.78;4.35;;;14.00;62.10;;;;;;10457537;28;20512;-62
2020/12/11 04:15:11;;;;;;;6.65;4.97;;;13.90;62.10;;;;;;10462644;28;20108;-62
2020/12/11 04:20:12;;;;;;;7.03;5.32;;;13.90;62.20;;;;;;10457193;28;20102;-62
2020/12/11 04:25:12;;;;;;;7.82;6.07;;;13.90;62.10;;;;;;10458398;28;20033;-62
2020/12/11 04:30:13;;;;;;;5.65;4.53;;;13.90;62.10;;;;;;10440376;28;20044;-62
2020/12/11 04:35:14;;;;;;;6.53;4.32;;;13.90;62.10;;;;;;10456683;28;20119;-62
2020/12/11 04:40:15;;;;;;;5.95;5.10;;;13.90;62.10;;;;;;10439520;28;20017;-62
2020/12/11 04:45:16;;;;;;;4.70;3.90;;;13.80;62.00;;;;;;10453227;28;20017;-62
2020/12/11 04:50:18;;;;;;;7.18;4.15;;;13.90;62.10;;;;;;10456204;28;20029;-62
2020/12/11 04:55:20;;;;;;;5.43;4.05;;;13.80;62.10;;;;;;10454909;28;20021;-62
2020/12/11 05:00:23;;;;;;;6.25;4.30;;;13.80;62.10;;;;;;10455334;28;20056;-62
2020/12/11 05:05:23;;;;;;;6.13;3.83;;;13.80;62.10;;;;;;10475870;28;20031;-62
2020/12/11 05:10:24;;;;;;;5.30;3.95;;;13.80;62.10;;;;;;10456468;28;20445;-62
2020/12/11 05:15:26;;;;;;;6.38;4.30;;;13.80;62.10;;;;;;10456509;28;20048;-62
2020/12/11 05:20:27;;;;;;;7.07;4.50;;;13.80;62.10;;;;;;10455193;28;20527;-62
2020/12/11 05:25:27;;;;;;;5.35;4.20;;;13.70;62.10;;;;;;10438302;28;20028;-62
2020/12/11 05:30:28;;;;;;;6.68;3.95;;;13.70;62.10;;;;;;10453692;28;20107;-62
2020/12/11 05:35:31;;;;;;;5.80;4.20;;;13.70;62.10;;;;;;10455790;28;20378;-62
2020/12/11 05:40:40;;;;;;;5.65;4.22;;;13.70;62.10;;;;;;10451735;28;20021;-63
2020/12/11 05:45:58;;;;;;;6.40;4.00;;;13.70;62.20;;;;;;10457071;28;20043;-62
2020/12/11 05:51:14;;;;;;;5.60;4.03;;;13.70;62.10;;;;;;10454337;28;20025;-62
2020/12/11 05:56:15;;;;;;;6.05;4.22;;;13.70;62.10;;;;;;10453319;28;20405;-62
2020/12/11 06:01:20;;;;;;;7.38;3.95;;;13.70;62.10;;;;;;10453862;28;20047;-62
2020/12/11 06:06:24;;;;;;;6.75;4.55;;;13.70;62.10;;;;;;10453850;28;20057;-62
2020/12/11 06:11:31;;;;;;;4.82;3.70;;;13.70;62.10;;;;;;10451100;28;20482;-62
2020/12/11 06:16:36;;;;;;;9.57;4.13;;;13.60;62.00;;;;;;10448553;28;20170;-64
2020/12/11 06:21:37;;;;;;;8.98;3.95;;;13.60;62.80;;;;;;10464455;28;20028;-59
2020/12/11 06:26:59;;;;;;;10.20;4.63;;;13.90;63.20;;;;;;10454728;28;20032;-60
2020/12/11 06:32:00;;;;;;;9.45;4.80;;;14.10;63.00;;;;;;10460445;28;20385;-59
2020/12/11 06:37:01;;;;;;;6.47;3.92;;;14.40;62.80;;;;;;10455817;28;20082;-59
2020/12/11 06:42:02;;;;;;;8.82;3.85;;;14.70;62.00;;;;;;10455722;28;20075;-60
2020/12/11 06:47:09;;;;;;;7.38;3.80;;;15.20;61.00;;;;;;10434968;28;20108;-61
2020/12/11 06:52:11;;;;;;;7.43;3.28;;;15.50;59.40;;;;;;10448754;28;20032;-61
2020/12/11 06:57:29;;;;;;;8.80;3.10;;;15.70;58.80;;;;;;10454125;28;20037;-61
2020/12/11 07:02:30;;;;;;;17.70;3.40;;;15.90;58.70;;;;;;10454432;28;20028;-62
2020/12/11 07:07:30;;;;;;;10.80;3.58;;;16.10;58.30;;;;;;10474820;28;20079;-63
2020/12/11 07:12:34;;;;;;;15.95;3.58;;;16.20;58.40;;;;;;10458452;28;20358;-63
2020/12/11 07:17:35;;;;;;;10.95;3.63;;;16.40;57.90;;;;;;10464316;28;20041;-60
2020/12/11 07:22:36;;;;;;;11.07;3.35;;;16.50;57.40;;;;;;10465842;28;20028;-61
2020/12/11 07:27:36;;;;;;;10.60;3.72;;;16.60;58.50;;;;;;10463593;28;20029;-61
2020/12/11 07:32:37;;;;;;;10.20;3.30;;;16.80;57.60;;;;;;10474182;28;20056;-62
2020/12/11 07:37:52;;;;;;;10.48;3.22;;;16.80;57.60;;;;;;10453074;28;20033;-60
2020/12/11 07:42:53;;;;;;;9.60;3.45;;;17.00;56.90;;;;;;10450943;28;20048;-62
2020/12/11 07:47:55;;;;;;;9.07;3.35;;;17.00;56.80;;;;;;10449703;28;20163;-61
2020/12/11 07:52:58;;;;;;;14.68;3.42;;;17.20;56.30;;;;;;10448946;28;20037;-60
2020/12/11 07:58:01;;;;;;;9.52;2.85;;;17.30;56.10;;;;;;10471091;28;20071;-59
2020/12/11 08:03:06;;;;;;;14.15;3.30;;;17.30;56.00;;;;;;10432607;28;20100;-60
2020/12/11 08:08:07;;;;;;;8.75;2.85;;;17.40;55.60;;;;;;10429351;28;20108;-60
2020/12/11 08:13:15;;;;;;;17.13;4.63;;;17.50;56.00;;;;;;10446441;28;20025;-60
2020/12/11 08:18:26;;;;;;;10.70;3.85;;;17.60;56.70;;;;;;10458784;28;20485;-60
2020/12/11 08:23:44;;;;;;;6.65;2.95;;;17.70;56.10;;;;;;10457226;28;20020;-60
2020/12/11 08:28:48;;;;;;;11.75;3.10;;;17.70;56.20;;;;;;10457209;28;20052;-60
2020/12/11 08:33:59;;;;;;;8.40;3.00;;;17.70;56.40;;;;;;10458010;28;20039;-60
2020/12/11 08:39:24;;;;;;;8.15;3.00;;;17.80;56.20;;;;;;10456508;28;20121;-60
2020/12/11 08:44:38;;;;;;;9.18;2.40;;;17.90;56.10;;;;;;10456626;28;20044;-60
2020/12/11 08:50:07;;;;;;;5.95;2.15;;;17.90;56.10;;;;;;10457518;28;20485;-60
2020/12/11 08:55:07;;;;;;;10.85;2.85;;;17.90;55.90;;;;;;10457051;28;20127;-60
2020/12/11 09:00:08;;;;;;;9.52;3.22;;;17.90;55.90;;;;;;10456835;28;20124;-61
2020/12/11 09:05:09;;;;;;;11.93;3.50;;;18.00;55.90;;;;;;10454870;28;20090;-61
2020/12/11 09:10:10;;;;;;;14.07;3.53;;;18.00;55.90;;;;;;10456530;28;20122;-61
2020/12/11 09:15:10;;;;;;;11.00;2.70;;;18.00;55.90;;;;;;10456570;28;20545;-60
2020/12/11 09:20:11;;;;;;;7.63;2.97;;;18.10;56.00;;;;;;10456083;28;20078;-61
2020/12/11 09:25:12;;;;;;;10.35;2.92;;;18.10;56.00;;;;;;10455699;28;20358;-61
2020/12/11 09:35:26;;;;;;;13.00;3.28;;;18.20;56.50;;;;;;10448154;28;20045;-62
2020/12/11 09:40:41;;;;;;;15.35;3.08;;;18.20;56.20;;;;;;10451767;28;20104;-61
2020/12/11 09:45:48;;;;;;;13.40;2.78;;;18.20;56.00;;;;;;10451630;28;20033;-62
2020/12/11 09:55:53;;;;;;;9.55;3.20;;;18.20;55.60;;;;;;10448132;28;20041;-62
2020/12/11 10:00:54;;;;;;;10.88;3.95;;;18.30;55.50;;;;;;10446666;28;20390;-62
2020/12/11 10:05:55;;;;;;;10.30;3.10;;;18.30;55.30;;;;;;10446796;28;20031;-62
2020/12/11 10:10:56;;;;;;;8.18;2.75;;;18.30;55.30;;;;;;10449178;28;20060;-62
2020/12/11 10:15:58;;;;;;;4.97;1.95;;;18.30;55.10;;;;;;10454611;28;20554;-62
2020/12/11 10:20:58;;;;;;;8.05;2.78;;;18.30;55.00;;;;;;10454413;28;20112;-62
2020/12/11 10:26:02;;;;;;;5.28;2.63;;;18.40;55.10;;;;;;10458010;28;20108;-62
2020/12/11 10:31:02;;;;;;;4.53;1.83;;;18.40;55.00;;;;;;10454100;28;20025;-62
2020/12/11 10:36:03;;;;;;;5.15;2.05;;;18.40;54.90;;;;;;10440303;28;20104;-62
2020/12/11 10:41:04;;;;;;;4.13;1.90;;;18.40;54.70;;;;;;10469480;28;20029;-62
2020/12/11 10:46:05;;;;;;;6.35;2.10;;;18.50;54.80;;;;;;10453237;28;20107;-62
2020/12/11 10:51:08;;;;;;;3.60;2.30;;;18.50;54.60;;;;;;10452386;28;20124;-62
2020/12/11 10:56:10;;;;;;;8.43;2.47;;;18.60;54.60;;;;;;10452312;28;20425;-61
2020/12/11 11:01:11;;;;;;;5.13;2.47;;;18.60;54.50;;;;;;10438551;28;20041;-62
2020/12/11 11:06:21;;;;;;;7.55;2.35;;;18.50;54.50;;;;;;10459907;28;20478;-60
2020/12/11 11:11:26;;;;;;;4.22;2.28;;;18.40;55.40;;;;;;10458320;28;20063;-58
2020/12/11 11:27:18;;;;;;;7.05;2.40;;;18.60;57.10;;;;;;10459858;28;20044;-60
2020/12/11 11:32:19;;;;;;;10.40;2.50;;;18.70;57.30;;;;;;10438020;28;20021;-59
2020/12/11 11:37:21;;;;;;;5.18;2.33;;;18.70;57.80;;;;;;10445436;28;20021;-61
2020/12/11 11:42:22;;;;;;;9.05;2.90;;;18.80;57.70;;;;;;10455701;28;20028;-61
2020/12/11 11:47:24;;;;;;;13.68;2.80;;;18.70;57.50;;;;;;10466652;28;20425;-59
2020/12/11 11:52:34;;;;;;;8.60;2.13;;;18.80;58.10;;;;;;10444842;28;20370;-63
2020/12/11 11:57:35;;;;;;;4.80;2.22;;;18.80;58.00;;;;;;10435762;28;20125;-65
2020/12/11 12:02:36;;;;;;;5.80;2.35;;;18.90;57.60;;;;;;10430151;28;20167;-63
2020/12/11 12:07:39;;;;;;;4.50;1.92;;;18.90;57.40;;;;;;10439392;28;20033;-64
2020/12/11 12:12:43;;;;;;;6.00;2.35;;;18.90;57.40;;;;;;10444054;28;20033;-63
2020/12/11 12:17:52;;;;;;;9.95;1.73;;;18.90;57.30;;;;;;10444450;28;20063;-64
2020/12/11 12:43:39;;;;;;;6.60;1.83;;;19.00;57.00;;;;;;10448222;28;20029;-61
2020/12/11 12:48:40;;;;;;;5.10;1.95;;;19.00;56.70;;;;;;10451876;28;20092;-63
2020/12/11 12:53:40;;;;;;;5.75;2.10;;;19.00;56.50;;;;;;10442335;28;20475;-65
2020/12/11 12:58:43;;;;;;;3.80;2.10;;;18.90;56.10;;;;;;10438024;28;20033;-66
2020/12/11 13:09:03;;;;;;;3.33;1.70;;;19.10;55.80;;;;;;10443089;28;20477;-66
2020/12/11 13:14:04;;;;;;;6.57;2.88;;;19.10;55.80;;;;;;10455574;28;20108;-63
2020/12/11 13:19:05;;;;;;;6.75;3.08;;;19.00;55.50;;;;;;10449176;28;20031;-62
2020/12/11 13:29:25;;;;;;;7.10;2.13;;;19.10;56.30;;;;;;10438824;28;20045;-62
2020/12/11 13:34:26;;;;;;;4.95;2.28;;;19.20;56.40;;;;;;10437061;28;20506;-62
2020/12/11 13:39:27;;;;;;;8.75;2.25;;;19.20;56.40;;;;;;10444158;28;20021;-61
2020/12/11 13:44:28;;;;;;;7.32;1.95;;;19.20;56.30;;;;;;10459463;28;20025;-61
2020/12/11 13:49:28;;;;;;;5.97;1.95;;;19.30;56.40;;;;;;10451940;28;20101;-61
2020/12/11 13:54:29;;;;;;;5.75;1.92;;;19.30;56.40;;;;;;10445998;28;20108;-61
2020/12/11 13:59:30;;;;;;;3.72;2.03;;;19.40;56.50;;;;;;10435996;28;20052;-61
2020/12/11 14:04:31;;;;;;;4.88;1.65;;;19.40;56.50;;;;;;10436245;28;20017;-61
2020/12/11 14:09:32;;;;;;;6.53;1.98;;;19.40;56.60;;;;;;10435458;28;20028;-60
2020/12/11 14:14:32;;;;;;;10.30;2.10;;;19.40;56.70;;;;;;10458610;28;20120;-61
2020/12/11 14:20:14;;;;;;;8.80;2.58;;;19.50;56.50;;;;;;10464180;28;20108;-64
2020/12/11 14:25:12;;;;;;;10.68;2.30;;;19.50;56.10;;;;;;10453331;28;20041;-60
2020/12/11 14:30:12;;;;;;;9.93;2.25;;;19.50;57.30;;;;;;10460486;28;20392;-61
2020/12/11 14:35:13;;;;;;;13.15;2.92;;;19.50;57.10;;;;;;10442540;28;20016;-63
2020/12/11 14:40:17;;;;;;;23.15;3.20;;;19.50;57.20;;;;;;10451016;28;20025;-63
2020/12/11 14:45:18;;;;;;;9.73;3.58;;;19.60;57.00;;;;;;10458352;28;20021;-62
2020/12/11 14:50:19;;;;;;;14.68;3.08;;;19.40;57.90;;;;;;10456406;28;20032;-62
2020/12/11 14:55:19;;;;;;;13.73;2.53;;;19.30;58.00;;;;;;10451324;28;20528;-61
2020/12/11 15:00:20;;;;;;;21.80;3.42;;;19.30;58.30;;;;;;10456591;28;20029;-62
2020/12/11 15:05:21;;;;;;;13.88;3.40;;;19.20;59.90;;;;;;10453033;28;20056;-59
2020/12/11 15:10:22;;;;;;;12.57;2.72;;;19.10;59.50;;;;;;10469240;28;20076;-60
2020/12/11 15:15:23;;;;;;;13.68;2.95;;;19.00;60.00;;;;;;10462255;28;20036;-60
2020/12/11 15:20:23;;;;;;;16.77;2.63;;;19.00;60.50;;;;;;10458208;28;20100;-60
2020/12/11 15:25:24;;;;;;;15.85;3.22;;;18.90;60.70;;;;;;10440967;28;20028;-59
2020/12/11 15:30:25;;;;;;;10.10;2.80;;;19.10;60.60;;;;;;10434162;28;20020;-59
2020/12/11 15:35:25;;;;;;;13.73;2.97;;;19.00;60.60;;;;;;10433965;28;20107;-60
2020/12/11 15:40:26;;;;;;;10.30;3.28;;;19.00;60.80;;;;;;10437440;28;20112;-60
2020/12/11 15:45:27;;;;;;;5.95;2.88;;;19.00;60.80;;;;;;10449504;28;20028;-60
2020/12/11 15:50:29;;;;;;;12.45;2.15;;;19.00;60.50;;;;;;10448103;28;20029;-60
2020/12/11 15:55:30;;;;;;;10.52;3.05;;;19.00;60.70;;;;;;10456640;28;20017;-58
2020/12/11 16:00:31;;;;;;;11.32;3.55;;;18.90;61.00;;;;;;10435657;28;20400;-61
2020/12/11 16:05:32;;;;;;;13.77;3.15;;;19.00;60.70;;;;;;10455569;28;20116;-64
2020/12/11 16:10:33;;;;;;;12.65;3.33;;;19.10;60.70;;;;;;10447797;28;20031;-64
2020/12/11 16:15:34;;;;;;;15.60;3.15;;;19.10;60.80;;;;;;10443560;28;20037;-67
2020/12/11 16:20:35;;;;;;;16.95;3.42;;;19.00;60.90;;;;;;10447240;28;20021;-66
2020/12/11 16:25:35;;;;;;;14.18;2.97;;;18.90;61.20;;;;;;10445353;28;20036;-66
2020/12/11 16:30:37;;;;;;;13.07;3.40;;;18.90;61.00;;;;;;10445033;28;20116;-65
2020/12/11 16:35:38;;;;;;;17.95;4.82;;;18.80;61.10;;;;;;10426571;28;20426;-65
2020/12/11 16:40:39;;;;;;;16.17;3.55;;;18.90;61.20;;;;;;10450743;28;20025;-65
2020/12/11 16:45:40;;;;;;;21.98;4.88;;;18.90;61.50;;;;;;10459619;28;20104;-67
2020/12/11 16:50:42;;;;;;;19.95;3.80;;;19.00;61.40;;;;;;10457365;28;20029;-63
2020/12/11 16:55:43;;;;;;;15.20;3.50;;;19.00;61.70;;;;;;10463785;28;20029;-67
2020/12/11 17:00:44;;;;;;;13.70;4.10;;;19.00;62.20;;;;;;10448432;28;20509;-64
2020/12/11 17:10:52;;;;;;;9.25;3.75;;;19.20;60.10;;;;;;10459943;28;20040;-64
2020/12/11 17:15:53;;;;;;;6.80;3.75;;;18.90;58.40;;;;;;10454169;28;20037;-64
2020/12/11 17:20:54;;;;;;;14.60;3.78;;;18.90;58.70;;;;;;10450521;28;20464;-70
2020/12/11 17:25:56;;;;;;;12.35;4.85;;;19.20;60.90;;;;;;10460554;28;20116;-67
2020/12/11 17:31:06;;;;;;;11.15;3.58;;;19.20;61.40;;;;;;10463941;28;20035;-65
2020/12/11 17:36:08;;;;;;;7.05;3.38;;;19.20;62.70;;;;;;10441036;28;20052;-65
2020/12/11 17:41:09;;;;;;;5.20;3.58;;;19.80;60.70;;;;;;10434812;28;20025;-65
2020/12/11 17:46:13;;;;;;;7.57;3.45;;;19.40;62.10;;;;;;10439612;28;20369;-63
2020/12/11 17:51:13;;;;;;;6.88;3.08;;;19.10;62.90;;;;;;10443569;28;20114;-65
2020/12/11 17:56:14;;;;;;;10.98;4.00;;;19.00;62.80;;;;;;10448155;28;20040;-65
2020/12/11 18:01:15;;;;;;;9.25;3.83;;;18.90;63.10;;;;;;10455520;28;20021;-65
2020/12/11 18:06:18;;;;;;;6.30;2.97;;;18.70;63.30;;;;;;10434630;28;20034;-66
2020/12/11 18:11:27;;;;;;;5.85;2.97;;;18.60;63.50;;;;;;10437366;28;20064;-64
2020/12/11 18:16:28;;;;;;;10.77;2.78;;;18.50;63.40;;;;;;10452734;28;20087;-64
2020/12/11 18:21:32;;;;;;;7.80;3.53;;;18.40;63.70;;;;;;10455919;28;20079;-62
2020/12/11 18:26:35;;;;;;;7.45;3.08;;;18.40;63.40;;;;;;10448699;28;20124;-63
2020/12/11 18:31:36;;;;;;;7.15;2.85;;;18.50;63.20;;;;;;10443384;28;20473;-66
2020/12/11 18:36:37;;;;;;;5.25;2.58;;;18.50;62.90;;;;;;10447878;28;20037;-65
2020/12/11 18:41:38;;;;;;;6.60;3.30;;;18.60;62.60;;;;;;10448893;28;20524;-63
2020/12/11 18:46:43;;;;;;;6.45;3.28;;;18.60;62.70;;;;;;10430148;28;20022;-64
2020/12/11 18:51:44;;;;;;;5.35;2.67;;;18.80;62.30;;;;;;10435620;28;20026;-63
2020/12/11 18:56:49;;;;;;;4.93;2.78;;;18.80;62.10;;;;;;10435260;28;20049;-63
2020/12/11 19:01:52;;;;;;;7.80;2.33;;;18.80;61.70;;;;;;10434758;28;20026;-64
2020/12/11 19:06:55;;;;;;;4.88;2.00;;;18.80;61.60;;;;;;10436612;28;20426;-64
2020/12/11 19:11:55;;;;;;;5.50;2.42;;;18.80;61.70;;;;;;10453032;28;20078;-63
2020/12/11 19:16:56;;;;;;;6.07;2.20;;;18.70;61.90;;;;;;10451555;28;20108;-63
2020/12/11 19:21:57;;;;;;;7.35;2.45;;;18.70;61.90;;;;;;10445746;28;20033;-63
2020/12/11 19:26:58;;;;;;;4.40;2.67;;;18.80;61.80;;;;;;10454024;28;20032;-64
2020/12/11 19:31:59;;;;;;;5.97;2.67;;;18.80;61.70;;;;;;10460550;28;20064;-64
2020/12/11 19:37:00;;;;;;;4.82;2.30;;;18.80;61.70;;;;;;10458280;28;20025;-64
2020/12/11 19:42:00;;;;;;;3.75;2.40;;;18.80;61.80;;;;;;10460580;28;20017;-63
2020/12/11 19:47:01;;;;;;;4.28;2.22;;;18.90;61.60;;;;;;10459552;28;20029;-64
2020/12/11 19:52:08;;;;;;;4.65;1.90;;;18.80;61.70;;;;;;10462762;28;20033;-64
2020/12/11 19:57:09;;;;;;;7.85;2.65;;;18.80;61.50;;;;;;10456150;28;20029;-65
2020/12/11 20:02:10;;;;;;;3.20;2.25;;;18.80;61.50;;;;;;10444600;28;20397;-64
2020/12/11 20:12:18;;;;;;;4.55;2.40;;;19.00;61.40;;;;;;10452226;28;20041;-65
2020/12/11 20:17:19;;;;;;;7.00;2.95;;;18.80;61.80;;;;;;10464117;28;20471;-64
2020/12/11 20:22:20;;;;;;;6.93;4.10;;;18.60;62.30;;;;;;10453967;28;20104;-65
2020/12/11 20:27:21;;;;;;;8.02;3.47;;;18.50;62.60;;;;;;10447815;28;20041;-64
2020/12/11 20:32:22;;;;;;;7.05;3.47;;;18.30;63.30;;;;;;10445648;28;20032;-64
2020/12/11 20:37:22;;;;;;;8.63;3.72;;;18.20;64.20;;;;;;10448635;28;20040;-64
2020/12/11 20:42:23;;;;;;;6.85;3.85;;;18.00;64.00;;;;;;10448864;28;20033;-65
2020/12/11 20:47:24;;;;;;;10.45;4.00;;;17.90;64.30;;;;;;10447661;28;20033;-64
2020/12/11 20:52:25;;;;;;;8.38;4.22;;;17.70;64.60;;;;;;10449452;28;20052;-63
2020/12/11 20:57:26;;;;;;;8.32;4.07;;;17.60;65.10;;;;;;10418682;28;20546;-63
2020/12/11 21:02:28;;;;;;;10.10;4.50;;;17.50;65.40;;;;;;10433968;28;20104;-64
2020/12/11 21:07:29;;;;;;;8.77;4.15;;;17.30;65.50;;;;;;10421695;28;20032;-63
2020/12/11 21:12:30;;;;;;;6.53;4.50;;;17.30;65.60;;;;;;10421890;28;20037;-63
2020/12/11 21:17:31;;;;;;;7.90;4.25;;;17.20;65.70;;;;;;10445557;28;20036;-64
2020/12/11 21:22:33;;;;;;;7.18;4.03;;;17.20;65.80;;;;;;10446054;28;20083;-64
2020/12/11 21:27:33;;;;;;;6.43;4.07;;;17.10;65.70;;;;;;10459866;28;20424;-64
2020/12/11 21:37:35;;;;;;;7.15;4.45;;;17.00;66.00;;;;;;10456357;28;20090;-64
2020/12/11 21:42:36;;;;;;;6.65;4.05;;;16.90;66.00;;;;;;10450436;28;20039;-64
2020/12/11 21:47:38;;;;;;;6.30;3.70;;;16.80;66.10;;;;;;10466661;28;20532;-64
2020/12/11 21:52:43;;;;;;;8.05;4.60;;;16.80;66.10;;;;;;10447932;28;20107;-63
2020/12/11 21:57:44;;;;;;;7.95;3.97;;;16.80;66.10;;;;;;10447404;28;20052;-64
2020/12/11 22:02:44;;;;;;;6.63;4.07;;;16.70;66.10;;;;;;10444091;28;20040;-63
2020/12/11 22:07:45;;;;;;;6.93;4.85;;;16.70;66.10;;;;;;10444101;28;20027;-64
2020/12/11 22:12:46;;;;;;;6.35;3.92;;;16.60;66.10;;;;;;10443452;28;20028;-63
2020/12/11 22:17:47;;;;;;;6.18;4.07;;;16.60;66.10;;;;;;10460855;28;20043;-64
2020/12/11 22:22:51;;;;;;;6.35;4.30;;;16.60;66.20;;;;;;10461582;28;20405;-64
2020/12/11 22:27:52;;;;;;;6.60;4.45;;;16.50;66.10;;;;;;10462766;28;20412;-64
2020/12/11 22:32:53;;;;;;;7.15;3.67;;;16.50;66.20;;;;;;10465766;28;20111;-65
2020/12/11 22:37:54;;;;;;;7.35;4.60;;;16.50;66.20;;;;;;10442278;28;20370;-65
2020/12/11 22:42:56;;;;;;;6.28;4.10;;;16.40;66.30;;;;;;10453118;28;20119;-65
2020/12/11 22:47:56;;;;;;;4.90;3.75;;;16.40;66.30;;;;;;10445131;28;20029;-63
2020/12/11 22:52:57;;;;;;;6.40;4.00;;;16.30;66.20;;;;;;10446078;28;20040;-64
2020/12/11 22:57:58;;;;;;;9.10;4.25;;;16.30;66.10;;;;;;10457934;28;20115;-63
2020/12/11 23:03:00;;;;;;;5.63;4.00;;;16.30;66.20;;;;;;10460049;28;20035;-63
2020/12/11 23:08:01;;;;;;;7.45;4.22;;;16.30;66.10;;;;;;10460127;28;20092;-63
2020/12/11 23:13:01;;;;;;;6.30;4.35;;;16.20;66.10;;;;;;10462268;28;20036;-63
2020/12/11 23:18:02;;;;;;;6.18;4.00;;;16.20;66.10;;;;;;10461524;28;20035;-64
2020/12/11 23:23:03;;;;;;;5.38;3.97;;;16.20;66.10;;;;;;10468662;28;20025;-64
2020/12/11 23:28:04;;;;;;;6.95;4.43;;;16.20;66.10;;;;;;10474937;28;20055;-64
2020/12/11 23:33:05;;;;;;;5.55;3.60;;;16.20;66.20;;;;;;10465158;28;20035;-63
2020/12/11 23:38:06;;;;;;;5.82;3.33;;;16.10;66.20;;;;;;10461001;28;20104;-64
2020/12/11 23:43:07;;;;;;;4.30;3.58;;;16.10;66.20;;;;;;10463136;28;20037;-62
2020/12/11 23:48:07;;;;;;;4.93;3.63;;;16.10;66.10;;;;;;10474533;28;20388;-63
2020/12/11 23:53:09;;;;;;;4.72;3.53;;;16.00;66.10;;;;;;10466308;28;20041;-64
2020/12/11 23:58:10;;;;;;;3.85;3.20;;;16.00;66.10;;;;;;10483802;28;20045;-63
